createdAt,value
2023-11-25T00:00:53.246Z,65.91
2023-11-25T00:03:19.651Z,65.66
2023-11-25T00:05:46.110Z,65.25
2023-11-25T00:08:12.472Z,66.24
2023-11-25T00:10:39.608Z,67.06
2023-11-25T00:13:07.032Z,66.57
2023-11-25T00:15:33.601Z,66.28
2023-11-25T00:18:00.043Z,66.08
2023-11-25T00:20:26.610Z,65.64
2023-11-25T00:22:53.672Z,66.02
2023-11-25T00:25:20.847Z,66.41
2023-11-25T00:27:47.572Z,66.05
2023-11-25T00:30:15.346Z,64.77
2023-11-25T00:32:42.548Z,65.29
2023-11-25T00:35:09.882Z,65.16
2023-11-25T00:37:36.718Z,64.98
2023-11-25T00:40:06.114Z,63.92
2023-11-25T00:42:32.565Z,65.12
2023-11-25T00:44:59.598Z,64.81
2023-11-25T00:47:28.601Z,65.25
2023-11-25T00:49:55.131Z,66.03
2023-11-25T00:52:21.502Z,65.74
2023-11-25T00:54:47.851Z,64.78
2023-11-25T00:57:14.208Z,64.36
2023-11-25T00:59:40.535Z,64.56
2023-11-25T01:02:06.975Z,63.41
2023-11-25T01:04:33.449Z,63.94
2023-11-25T01:06:59.813Z,64.35
2023-11-25T01:09:29.366Z,62.65
2023-11-25T01:11:56.567Z,62.71
2023-11-25T01:14:23.036Z,62.29
2023-11-25T01:16:53.001Z,62.10
2023-11-25T01:19:19.439Z,62.20
2023-11-25T01:21:45.953Z,61.65
2023-11-25T01:24:12.764Z,61.54
2023-11-25T01:26:42.143Z,61.33
2023-11-25T01:29:08.710Z,60.41
2023-11-25T01:31:35.189Z,60.10
2023-11-25T01:34:02.717Z,60.82
2023-11-25T01:36:29.240Z,61.88
2023-11-25T01:38:55.581Z,61.82
2023-11-25T01:41:21.933Z,63.33
2023-11-25T01:43:48.548Z,61.94
2023-11-25T01:46:27.651Z,61.74
2023-11-25T01:48:54.216Z,61.99
2023-11-25T01:51:20.918Z,61.58
2023-11-25T01:53:47.300Z,61.01
2023-11-25T01:56:15.336Z,61.37
2023-11-25T01:58:41.734Z,60.75
2023-11-25T02:01:08.430Z,61.37
2023-11-25T02:03:34.920Z,61.60
2023-11-25T02:06:01.273Z,61.22
2023-11-25T02:08:27.633Z,61.39
2023-11-25T02:10:55.012Z,61.47
2023-11-25T02:13:24.188Z,61.48
2023-11-25T02:15:51.726Z,60.89
2023-11-25T02:18:18.110Z,61.91
2023-11-25T02:20:46.122Z,61.29
2023-11-25T02:23:26.159Z,60.96
2023-11-25T02:25:53.766Z,61.25
2023-11-25T02:28:21.037Z,61.39
2023-11-25T02:30:48.442Z,61.43
2023-11-25T02:33:15.829Z,61.52
2023-11-25T02:35:43.721Z,61.71
2023-11-25T02:38:13.435Z,62.26
2023-11-25T02:40:41.427Z,61.89
2023-11-25T02:43:12.275Z,61.83
2023-11-25T02:45:39.949Z,61.35
2023-11-25T02:48:07.176Z,61.71
2023-11-25T02:50:36.546Z,61.65
2023-11-25T02:53:05.486Z,61.61
2023-11-25T02:55:31.849Z,61.78
2023-11-25T02:57:58.221Z,60.81
2023-11-25T03:00:24.575Z,61.15
2023-11-25T03:02:54.739Z,61.12
2023-11-25T03:05:23.412Z,61.88
2023-11-25T03:07:51.550Z,62.05
2023-11-25T03:10:18.163Z,61.47
2023-11-25T03:12:48.615Z,62.30
2023-11-25T03:15:16.457Z,62.63
2023-11-25T03:17:42.853Z,62.51
2023-11-25T03:20:09.707Z,62.83
2023-11-25T03:22:36.157Z,62.72
2023-11-25T03:25:02.995Z,62.81
2023-11-25T03:27:32.302Z,62.46
2023-11-25T03:30:08.078Z,61.87
2023-11-25T03:32:35.840Z,62.14
2023-11-25T03:35:02.473Z,62.29
2023-11-25T03:37:28.895Z,62.17
2023-11-25T03:39:55.257Z,62.11
2023-11-25T03:42:21.647Z,63.17
2023-11-25T03:44:48.413Z,61.30
2023-11-25T03:47:14.893Z,63.18
2023-11-25T03:49:41.585Z,63.05
2023-11-25T03:52:08.102Z,62.04
2023-11-25T03:54:34.536Z,62.81
2023-11-25T03:57:00.888Z,62.46
2023-11-25T03:59:27.317Z,62.56
2023-11-25T04:01:53.869Z,61.64
2023-11-25T04:04:20.519Z,62.00
2023-11-25T04:06:48.278Z,61.91
2023-11-25T04:09:14.863Z,62.25
2023-11-25T04:11:44.360Z,62.18
2023-11-25T04:14:10.802Z,61.47
2023-11-25T04:16:37.264Z,63.43
2023-11-25T04:19:04.404Z,62.79
2023-11-25T04:21:30.766Z,61.82
2023-11-25T04:23:57.288Z,62.11
2023-11-25T04:26:25.814Z,61.26
2023-11-25T04:28:52.484Z,60.67
2023-11-25T04:31:19.022Z,61.15
2023-11-25T04:33:45.809Z,61.46
2023-11-25T04:36:13.064Z,61.13
2023-11-25T04:38:40.758Z,61.25
2023-11-25T04:41:07.263Z,61.88
2023-11-25T04:43:33.692Z,63.14
2023-11-25T04:46:03.341Z,63.02
2023-11-25T04:48:29.793Z,63.41
2023-11-25T04:50:56.410Z,63.83
2023-11-25T04:53:22.953Z,64.53
2023-11-25T04:55:49.514Z,64.71
2023-11-25T04:58:16.029Z,66.11
2023-11-25T05:00:42.443Z,67.76
2023-11-25T05:03:09.440Z,69.77
2023-11-25T05:05:35.905Z,70.34
2023-11-25T05:08:02.309Z,72.81
2023-11-25T05:10:29.588Z,72.77
2023-11-25T05:12:56.173Z,72.66
2023-11-25T05:15:26.507Z,72.26
2023-11-25T05:17:56.048Z,72.67
2023-11-25T05:20:22.772Z,72.14
2023-11-25T05:22:49.428Z,71.93
2023-11-25T05:25:16.847Z,73.77
2023-11-25T05:27:43.867Z,71.13
2023-11-25T05:30:13.933Z,71.82
2023-11-25T05:32:44.066Z,71.01
2023-11-25T05:35:12.362Z,68.80
2023-11-25T05:37:38.866Z,67.23
2023-11-25T05:40:09.741Z,67.72
2023-11-25T05:42:38.386Z,67.88
2023-11-25T05:45:09.619Z,67.60
2023-11-25T05:47:36.076Z,68.59
2023-11-25T05:50:03.080Z,69.59
2023-11-25T05:52:29.506Z,69.00
2023-11-25T05:54:56.927Z,68.51
2023-11-25T05:57:23.762Z,68.13
2023-11-25T05:59:50.135Z,67.83
2023-11-25T06:02:16.688Z,67.75
2023-11-25T06:04:43.768Z,66.31
2023-11-25T06:07:10.577Z,67.79
2023-11-25T06:09:36.924Z,67.57
2023-11-25T06:12:03.419Z,67.43
2023-11-25T06:14:33.899Z,66.02
2023-11-25T06:17:01.620Z,66.96
2023-11-25T06:19:30.292Z,66.59
2023-11-25T06:21:56.788Z,67.23
2023-11-25T06:24:23.250Z,66.62
2023-11-25T06:26:51.147Z,68.24
2023-11-25T06:29:17.678Z,67.31
2023-11-25T06:31:46.652Z,68.09
2023-11-25T06:34:13.324Z,68.11
2023-11-25T06:36:41.103Z,67.09
2023-11-25T06:39:08.895Z,68.21
2023-11-25T06:41:35.448Z,68.09
2023-11-25T06:44:02.615Z,67.76
2023-11-25T06:46:29.203Z,68.02
2023-11-25T06:48:55.675Z,68.03
2023-11-25T06:51:22.041Z,67.29
2023-11-25T06:53:48.404Z,68.73
2023-11-25T06:56:17.846Z,68.28
2023-11-25T06:58:44.210Z,67.24
2023-11-25T07:01:17.396Z,66.90
2023-11-25T07:03:43.819Z,67.67
2023-11-25T07:06:10.239Z,67.05
2023-11-25T07:08:36.630Z,67.88
2023-11-25T07:11:06.276Z,67.93
2023-11-25T07:13:33.402Z,67.13
2023-11-25T07:16:02.036Z,67.42
2023-11-25T07:18:28.460Z,67.52
2023-11-25T07:20:56.608Z,68.12
2023-11-25T07:23:23.669Z,66.72
2023-11-25T07:25:50.196Z,67.86
2023-11-25T07:28:17.233Z,67.01
2023-11-25T07:30:45.358Z,66.84
2023-11-25T07:33:11.830Z,67.08
2023-11-25T07:35:38.906Z,69.31
2023-11-25T07:38:05.353Z,68.32
2023-11-25T07:40:31.789Z,68.50
2023-11-25T07:42:59.453Z,67.91
2023-11-25T07:45:26.776Z,68.70
2023-11-25T07:47:54.047Z,69.97
2023-11-25T07:50:20.748Z,69.36
2023-11-25T07:52:47.233Z,69.35
2023-11-25T07:55:13.628Z,68.26
2023-11-25T07:57:40.707Z,67.35
2023-11-25T08:00:16.717Z,66.31
2023-11-25T08:02:45.919Z,67.33
2023-11-25T08:05:12.403Z,66.56
2023-11-25T08:07:38.897Z,66.63
2023-11-25T08:10:07.726Z,68.01
2023-11-25T08:12:34.307Z,67.89
2023-11-25T08:15:00.698Z,66.34
2023-11-25T08:17:28.282Z,72.30
2023-11-25T08:19:54.718Z,72.99
2023-11-25T08:22:21.113Z,74.05
2023-11-25T08:24:47.475Z,75.23
2023-11-25T08:27:14.162Z,74.83
2023-11-25T08:29:42.900Z,73.52
2023-11-25T08:32:09.473Z,74.37
2023-11-25T08:34:35.862Z,73.32
2023-11-25T08:37:04.833Z,74.52
2023-11-25T08:39:33.826Z,73.14
2023-11-25T08:42:00.419Z,75.72
2023-11-25T08:44:28.163Z,76.73
2023-11-25T08:46:56.162Z,77.03
2023-11-25T08:49:23.410Z,76.42
2023-11-25T08:51:52.034Z,76.86
2023-11-25T08:54:19.511Z,77.89
2023-11-25T08:56:46.772Z,76.34
2023-11-25T08:59:21.636Z,76.19
2023-11-25T09:01:49.546Z,76.70
2023-11-25T09:04:26.519Z,76.02
2023-11-25T09:06:53.764Z,77.52
2023-11-25T09:09:21.681Z,75.62
2023-11-25T09:11:51.699Z,77.44
2023-11-25T09:14:20.085Z,76.24
2023-11-25T09:16:47.082Z,76.76
2023-11-25T09:19:14.531Z,75.53
2023-11-25T09:21:42.271Z,74.96
2023-11-25T09:24:08.968Z,75.48
2023-11-25T09:26:35.307Z,74.70
2023-11-25T09:29:01.680Z,75.14
2023-11-25T09:31:28.246Z,74.13
2023-11-25T09:33:55.686Z,74.29
2023-11-25T09:36:24.153Z,73.75
2023-11-25T09:38:50.599Z,75.54
2023-11-25T09:41:17.096Z,74.63
2023-11-25T09:43:43.968Z,76.91
2023-11-25T09:46:10.831Z,75.06
2023-11-25T09:48:37.198Z,74.36
2023-11-25T09:51:04.344Z,74.05
2023-11-25T09:53:34.130Z,73.26
2023-11-25T09:56:05.498Z,71.81
2023-11-25T09:58:38.434Z,72.78
2023-11-25T10:01:13.082Z,73.50
2023-11-25T10:03:44.281Z,74.12
2023-11-25T10:06:10.962Z,73.46
2023-11-25T10:08:37.365Z,74.14
2023-11-25T10:11:08.973Z,72.57
2023-11-25T10:13:36.726Z,73.28
2023-11-25T10:16:04.239Z,73.87
2023-11-25T10:18:31.741Z,73.71
2023-11-25T10:20:59.278Z,73.30
2023-11-25T10:23:26.960Z,71.62
2023-11-25T10:25:54.280Z,72.00
2023-11-25T10:28:22.345Z,69.95
2023-11-25T10:30:56.583Z,71.83
2023-11-25T10:33:29.741Z,72.41
2023-11-25T10:35:57.156Z,72.01
2023-11-25T10:38:28.227Z,71.75
2023-11-25T10:40:59.973Z,69.79
2023-11-25T10:43:27.569Z,70.52
2023-11-25T10:46:10.838Z,70.03
2023-11-25T10:48:41.141Z,70.08
2023-11-25T10:51:09.435Z,69.81
2023-11-25T10:53:38.887Z,69.40
2023-11-25T10:56:05.785Z,68.83
2023-11-25T10:58:32.434Z,69.65
2023-11-25T11:00:59.538Z,68.64
2023-11-25T11:03:41.787Z,68.71
2023-11-25T11:06:10.960Z,69.18
2023-11-25T11:08:44.291Z,68.66
2023-11-25T11:11:18.045Z,68.62
2023-11-25T11:13:53.232Z,67.44
2023-11-25T11:16:58.484Z,67.06
2023-11-25T11:19:43.671Z,66.40
2023-11-25T11:22:13.766Z,66.99
2023-11-25T11:24:59.585Z,66.90
2023-11-25T11:27:31.058Z,65.91
2023-11-25T11:30:09.993Z,66.42
2023-11-25T11:32:36.786Z,65.18
2023-11-25T11:35:04.067Z,65.47
2023-11-25T11:37:42.444Z,66.17
2023-11-25T11:40:09.025Z,67.45
2023-11-25T11:42:35.860Z,66.94
2023-11-25T11:45:12.732Z,67.59
2023-11-25T11:47:40.866Z,65.78
2023-11-25T11:50:09.877Z,65.22
2023-11-25T11:52:47.175Z,65.12
2023-11-25T11:55:32.543Z,65.10
2023-11-25T11:58:14.489Z,65.02
2023-11-25T12:01:00.934Z,65.44
2023-11-25T12:03:27.854Z,65.34
2023-11-25T12:05:54.573Z,65.27
2023-11-25T12:08:21.710Z,62.81
2023-11-25T12:10:48.794Z,63.80
2023-11-25T12:13:32.262Z,62.26
2023-11-25T12:16:04.658Z,62.34
2023-11-25T12:18:33.318Z,64.36
2023-11-25T12:21:03.620Z,66.69
2023-11-25T12:23:41.180Z,65.60
2023-11-25T12:26:18.438Z,66.56
2023-11-25T12:28:44.936Z,68.47
2023-11-25T12:31:11.349Z,68.02
2023-11-25T12:33:37.755Z,67.84
2023-11-25T12:36:04.252Z,68.15
2023-11-25T12:38:32.720Z,66.70
2023-11-25T12:40:59.230Z,69.74
2023-11-25T12:43:25.667Z,69.45
2023-11-25T12:45:52.277Z,68.49
2023-11-25T12:48:30.608Z,68.54
2023-11-25T12:51:07.798Z,67.95
2023-11-25T12:53:35.941Z,67.56
2023-11-25T12:56:02.555Z,65.81
2023-11-25T12:58:29.113Z,66.27
2023-11-25T13:00:57.777Z,64.89
2023-11-25T13:03:25.635Z,65.68
2023-11-25T13:05:58.306Z,64.64
2023-11-25T13:08:28.920Z,63.18
2023-11-25T13:10:56.846Z,64.51
2023-11-25T13:13:24.147Z,64.02
2023-11-25T13:15:51.232Z,63.50
2023-11-25T13:18:17.568Z,61.91
2023-11-25T13:20:43.899Z,61.34
2023-11-25T13:23:11.765Z,61.67
2023-11-25T13:25:38.186Z,60.89
2023-11-25T13:28:04.744Z,59.94
2023-11-25T13:30:33.432Z,60.76
2023-11-25T13:32:59.829Z,61.08
2023-11-25T13:35:26.268Z,60.93
2023-11-25T13:37:54.831Z,61.18
2023-11-25T13:40:21.212Z,60.23
2023-11-25T13:42:47.958Z,61.44
2023-11-25T13:45:14.806Z,64.75
2023-11-25T13:47:43.287Z,68.32
2023-11-25T13:50:11.578Z,68.41
2023-11-25T13:52:38.827Z,69.35
2023-11-25T13:55:06.548Z,71.23
2023-11-25T13:57:32.908Z,70.55
2023-11-25T13:59:59.972Z,69.98
2023-11-25T14:02:28.757Z,69.78
2023-11-25T14:04:55.331Z,68.09
2023-11-25T14:07:22.798Z,69.25
2023-11-25T14:09:49.184Z,69.36
2023-11-25T14:12:15.529Z,69.80
2023-11-25T14:14:42.131Z,68.32
2023-11-25T14:17:12.239Z,66.32
2023-11-25T14:19:40.167Z,65.17
2023-11-25T14:22:06.903Z,66.81
2023-11-25T14:24:33.333Z,66.95
2023-11-25T14:27:01.852Z,67.58
2023-11-25T14:29:28.231Z,68.19
2023-11-25T14:31:54.554Z,69.15
2023-11-25T14:34:21.901Z,68.59
2023-11-25T14:36:48.377Z,67.72
2023-11-25T14:39:19.451Z,66.76
2023-11-25T14:41:48.815Z,67.31
2023-11-25T14:44:15.413Z,68.19
2023-11-25T14:46:42.635Z,68.42
2023-11-25T14:49:09.044Z,70.22
2023-11-25T14:51:35.638Z,69.84
2023-11-25T14:54:02.167Z,75.46
2023-11-25T14:56:28.615Z,74.79
2023-11-25T14:58:55.030Z,74.06
2023-11-25T15:01:21.986Z,71.07
2023-11-25T15:03:48.594Z,73.96
2023-11-25T15:06:14.981Z,73.17
2023-11-25T15:08:41.319Z,73.99
2023-11-25T15:11:08.440Z,72.54
2023-11-25T15:13:34.817Z,72.20
2023-11-25T15:16:01.818Z,72.35
2023-11-25T15:18:29.090Z,71.08
2023-11-25T15:20:55.708Z,69.91
2023-11-25T15:23:22.902Z,71.53
2023-11-25T15:25:49.602Z,69.30
2023-11-25T15:28:17.371Z,71.31
2023-11-25T15:30:44.170Z,70.42
2023-11-25T15:33:12.650Z,69.93
2023-11-25T15:35:39.355Z,68.91
2023-11-25T15:38:05.758Z,69.79
2023-11-25T15:40:32.223Z,68.96
2023-11-25T15:42:58.575Z,68.90
2023-11-25T15:45:24.937Z,69.82
2023-11-25T15:47:51.770Z,68.56
2023-11-25T15:50:18.288Z,67.56
2023-11-25T15:52:44.683Z,67.99
2023-11-25T15:55:12.504Z,66.23
2023-11-25T15:57:39.720Z,64.81
2023-11-25T16:00:14.393Z,64.33
2023-11-25T16:02:41.992Z,64.84
2023-11-25T16:05:13.193Z,66.22
2023-11-25T16:07:39.588Z,67.00
2023-11-25T16:10:08.595Z,66.24
2023-11-25T16:12:34.943Z,66.07
2023-11-25T16:15:01.475Z,67.80
2023-11-25T16:17:28.326Z,68.28
2023-11-25T16:19:54.883Z,67.41
2023-11-25T16:22:21.256Z,66.95
2023-11-25T16:24:47.610Z,66.32
2023-11-25T16:27:13.987Z,67.71
2023-11-25T16:29:40.325Z,69.24
2023-11-25T16:32:07.064Z,67.83
2023-11-25T16:34:33.486Z,69.19
2023-11-25T16:36:59.881Z,69.96
2023-11-25T16:39:29.048Z,69.94
2023-11-25T16:41:55.721Z,68.69
2023-11-25T16:44:22.388Z,68.41
2023-11-25T16:46:48.941Z,70.48
2023-11-25T16:49:15.784Z,69.11
2023-11-25T16:51:46.271Z,69.39
2023-11-25T16:54:13.367Z,69.60
2023-11-25T16:56:39.732Z,68.76
2023-11-25T16:59:06.286Z,69.91
2023-11-25T17:01:32.870Z,70.30
2023-11-25T17:03:59.434Z,69.42
2023-11-25T17:06:25.899Z,68.89
2023-11-25T17:08:53.041Z,67.58
2023-11-25T17:11:19.398Z,68.13
2023-11-25T17:13:45.775Z,67.74
2023-11-25T17:16:16.195Z,68.72
2023-11-25T17:18:42.525Z,69.42
2023-11-25T17:21:08.868Z,69.97
2023-11-25T17:23:36.036Z,70.97
2023-11-25T17:26:02.755Z,71.60
2023-11-25T17:28:30.572Z,71.50
2023-11-25T17:30:56.947Z,70.78
2023-11-25T17:33:23.398Z,71.02
2023-11-25T17:35:50.488Z,71.20
2023-11-25T17:38:18.497Z,71.78
2023-11-25T17:40:44.952Z,71.99
2023-11-25T17:43:11.475Z,73.18
2023-11-25T17:45:37.811Z,72.82
2023-11-25T17:48:04.561Z,71.55
2023-11-25T17:50:30.903Z,72.11
2023-11-25T17:53:06.757Z,71.88
2023-11-25T17:55:38.677Z,72.41
2023-11-25T17:58:05.047Z,72.36
2023-11-25T18:00:31.608Z,71.54
2023-11-25T18:02:58.118Z,72.09
2023-11-25T18:05:24.594Z,73.93
2023-11-25T18:07:51.514Z,72.89
2023-11-25T18:10:17.939Z,72.29
2023-11-25T18:12:45.884Z,72.49
2023-11-25T18:15:14.151Z,71.76
2023-11-25T18:17:40.578Z,72.70
2023-11-25T18:20:07.691Z,72.26
2023-11-25T18:22:34.156Z,72.70
2023-11-25T18:25:00.577Z,74.15
2023-11-25T18:27:27.268Z,73.74
2023-11-25T18:29:53.927Z,72.61
2023-11-25T18:32:20.273Z,72.67
2023-11-25T18:34:46.635Z,73.21
2023-11-25T18:37:13.234Z,72.07
2023-11-25T18:39:39.997Z,73.30
2023-11-25T18:42:06.423Z,72.76
2023-11-25T18:44:32.777Z,73.67
2023-11-25T18:46:59.291Z,73.61
2023-11-25T18:49:25.715Z,71.55
2023-11-25T18:51:52.044Z,71.72
2023-11-25T18:54:18.734Z,72.14
2023-11-25T18:56:45.099Z,72.59
2023-11-25T18:59:11.617Z,72.39
2023-11-25T19:01:39.838Z,73.19
2023-11-25T19:04:07.291Z,73.08
2023-11-25T19:06:34.407Z,72.23
2023-11-25T19:09:01.370Z,72.60
2023-11-25T19:11:28.357Z,71.29
2023-11-25T19:13:54.923Z,71.13
2023-11-25T19:16:22.195Z,70.98
2023-11-25T19:18:49.486Z,70.97
2023-11-25T19:21:16.387Z,69.71
2023-11-25T19:23:43.074Z,70.30
2023-11-25T19:26:10.505Z,69.77
2023-11-25T19:28:37.406Z,69.15
2023-11-25T19:31:04.010Z,67.40
2023-11-25T19:33:30.573Z,67.00
2023-11-25T19:35:57.151Z,67.28
2023-11-25T19:38:23.499Z,68.11
2023-11-25T19:40:49.891Z,68.97
2023-11-25T19:43:16.268Z,68.69
2023-11-25T19:45:42.642Z,68.52
2023-11-25T19:48:09.180Z,69.66
2023-11-25T19:50:37.422Z,69.40
2023-11-25T19:53:04.568Z,69.33
2023-11-25T19:55:30.956Z,70.72
2023-11-25T19:57:57.353Z,70.75
2023-11-25T20:00:25.009Z,68.84
2023-11-25T20:02:51.553Z,69.70
2023-11-25T20:05:18.218Z,69.13
2023-11-25T20:07:46.414Z,69.66
2023-11-25T20:10:13.423Z,69.62
2023-11-25T20:12:40.168Z,67.60
2023-11-25T20:15:07.445Z,69.25
2023-11-25T20:17:34.023Z,69.25
2023-11-25T20:20:00.842Z,68.61
2023-11-25T20:22:27.270Z,70.26
2023-11-25T20:24:53.703Z,69.47
2023-11-25T20:27:20.412Z,68.43
2023-11-25T20:29:47.228Z,69.02
2023-11-25T20:32:13.720Z,70.58
2023-11-25T20:34:40.276Z,69.64
2023-11-25T20:37:07.350Z,69.57
2023-11-25T20:39:34.256Z,69.31
2023-11-25T20:42:00.669Z,70.32
2023-11-25T20:44:27.092Z,69.30
2023-11-25T20:46:53.593Z,69.77
2023-11-25T20:49:20.156Z,69.63
2023-11-25T20:51:46.613Z,67.73
2023-11-25T20:54:13.043Z,69.61
2023-11-25T20:56:39.409Z,68.22
2023-11-25T20:59:06.552Z,68.69
2023-11-25T21:01:32.935Z,69.42
2023-11-25T21:03:59.473Z,70.65
2023-11-25T21:06:25.878Z,69.33
2023-11-25T21:08:52.322Z,69.79
2023-11-25T21:11:18.680Z,68.34
2023-11-25T21:13:45.236Z,70.39
2023-11-25T21:16:15.193Z,69.15
2023-11-25T21:18:43.292Z,70.21
2023-11-25T21:21:09.731Z,70.22
2023-11-25T21:23:39.624Z,70.86
2023-11-25T21:26:07.114Z,71.51
2023-11-25T21:28:33.582Z,70.36
2023-11-25T21:30:59.940Z,69.40
2023-11-25T21:33:26.298Z,69.94
2023-11-25T21:35:54.367Z,68.95
2023-11-25T21:38:20.792Z,70.25
2023-11-25T21:40:47.187Z,69.86
2023-11-25T21:43:13.553Z,69.21
2023-11-25T21:45:40.078Z,69.69
2023-11-25T21:48:06.580Z,69.13
2023-11-25T21:50:33.470Z,69.89
2023-11-25T21:53:01.179Z,70.16
2023-11-25T21:55:27.802Z,70.68
2023-11-25T21:57:54.179Z,69.96
2023-11-25T22:00:20.756Z,71.10
2023-11-25T22:02:56.890Z,70.87
2023-11-25T22:05:23.377Z,70.66
2023-11-25T22:07:49.747Z,70.59
2023-11-25T22:10:24.754Z,71.28
2023-11-25T22:12:58.762Z,69.40
2023-11-25T22:15:25.487Z,69.93
2023-11-25T22:17:52.094Z,70.65
2023-11-25T22:20:18.597Z,70.24
2023-11-25T22:22:45.210Z,68.79
2023-11-25T22:25:13.795Z,69.55
2023-11-25T22:27:41.214Z,68.95
2023-11-25T22:30:09.042Z,69.55
2023-11-25T22:32:35.505Z,69.83
2023-11-25T22:35:02.036Z,70.00
2023-11-25T22:37:28.570Z,66.73
2023-11-25T22:39:55.071Z,69.45
2023-11-25T22:42:21.401Z,68.67
2023-11-25T22:44:47.742Z,69.22
2023-11-25T22:47:14.158Z,68.60
2023-11-25T22:49:40.542Z,69.42
2023-11-25T22:52:06.889Z,69.87
2023-11-25T22:54:36.255Z,69.64
2023-11-25T22:57:02.651Z,67.99
2023-11-25T22:59:29.097Z,67.79
2023-11-25T23:01:56.287Z,68.39
2023-11-25T23:04:22.799Z,68.03
2023-11-25T23:06:49.881Z,69.05
2023-11-25T23:09:16.287Z,67.67
2023-11-25T23:11:42.653Z,68.34
2023-11-25T23:14:09.077Z,68.29
2023-11-25T23:16:35.667Z,67.34
2023-11-25T23:19:02.056Z,68.65
2023-11-25T23:21:28.434Z,68.36
2023-11-25T23:23:56.198Z,68.13
2023-11-25T23:26:22.699Z,68.63
2023-11-25T23:28:49.351Z,68.93
2023-11-25T23:31:15.712Z,69.11
2023-11-25T23:33:42.120Z,67.08
2023-11-25T23:36:10.364Z,67.30
2023-11-25T23:38:36.790Z,68.38
2023-11-25T23:41:03.221Z,67.95
2023-11-25T23:43:31.160Z,68.57
2023-11-25T23:45:57.599Z,69.04
2023-11-25T23:48:24.413Z,68.95
2023-11-25T23:50:50.804Z,67.80
2023-11-25T23:53:17.204Z,66.76
2023-11-25T23:55:43.740Z,67.41
2023-11-25T23:58:10.194Z,67.27
